Time;durP1;ratioP1;P1;durP2;ratioP2;P2;SDS_P1;SDS_P2;PMS_P1;PMS_P2;Temp;Humidity;BMP_temperature;BMP_pressure;BME280_temperature;BME280_humidity;BME280_pressure;Samples;Min_cycle;Max_cycle;Signal;HPM_P1;HPM_P2
2022/06/12 00:00:44;;;;;;;6.43;5.83;;;;;;;19.51;71.84;156376.97;5030878;28;20534;-78
2022/06/12 00:03:14;;;;;;;6.07;5.47;;;;;;;19.51;72.18;156378.28;5031391;28;20486;-79
2022/06/12 00:05:44;;;;;;;6.30;5.80;;;;;;;19.50;71.54;156375.66;5030852;28;20428;-79
2022/06/12 00:08:11;;;;;;;8.23;6.40;;;;;;;19.47;73.04;156366.50;5054250;28;20541;-80
2022/06/12 00:10:40;;;;;;;7.73;6.00;;;;;;;19.43;72.49;156358.69;5055958;28;20451;-78
2022/06/12 00:13:09;;;;;;;5.33;4.93;;;;;;;19.43;72.48;156357.41;5067803;28;20445;-79
2022/06/12 00:15:36;;;;;;;7.90;5.97;;;;;;;19.40;72.18;156350.91;5053920;28;20786;-79
2022/06/12 00:18:03;;;;;;;6.20;5.53;;;;;;;19.39;72.84;156348.28;5040873;28;20727;-79
2022/06/12 00:20:30;;;;;;;6.57;5.93;;;;;;;19.34;73.07;156335.19;5045594;28;20486;-79
2022/06/12 00:23:00;;;;;;;6.57;5.97;;;;;;;19.31;72.98;156326.06;5055259;28;20538;-79
2022/06/12 00:25:30;;;;;;;5.67;5.13;;;;;;;19.24;73.66;156307.84;5056957;28;20568;-80
2022/06/12 00:27:57;;;;;;;6.13;5.53;;;;;;;19.17;72.98;156290.88;5057655;28;20441;-79
2022/06/12 00:30:26;;;;;;;5.97;5.47;;;;;;;19.12;73.65;156276.53;5072728;28;20559;-80
2022/06/12 00:32:54;;;;;;;5.80;5.20;;;;;;;19.07;73.88;156263.50;5047903;28;20464;-81
2022/06/12 00:35:23;;;;;;;6.50;5.93;;;;;;;19.04;74.54;156255.66;5049326;28;20453;-80
2022/06/12 00:37:51;;;;;;;7.20;6.50;;;;;;;18.97;76.70;156238.75;5040839;28;20493;-80
2022/06/12 00:40:32;;;;;;;10.23;7.20;;;;;;;18.94;75.84;156230.94;5034962;28;20521;-80
2022/06/12 00:43:01;;;;;;;7.23;6.63;;;;;;;18.92;75.78;156224.41;5032396;28;20444;-80
2022/06/12 00:45:42;;;;;;;7.50;6.17;;;;;;;18.89;76.91;156217.91;5033702;28;20519;-80
2022/06/12 00:48:12;;;;;;;8.17;7.47;;;;;;;18.86;76.58;156210.09;5067329;28;20874;-81
2022/06/12 00:50:42;;;;;;;7.70;7.00;;;;;;;18.81;76.76;156198.38;5034186;28;20506;-81
2022/06/12 00:53:12;;;;;;;7.83;7.07;;;;;;;18.78;77.00;156190.53;5052190;28;20435;-79
2022/06/12 00:55:44;;;;;;;7.67;6.97;;;;;;;18.75;77.43;156181.41;5049464;28;20455;-79
2022/06/12 00:58:13;;;;;;;7.70;6.97;;;;;;;18.71;78.98;156172.31;5037980;28;20953;-79
2022/06/12 01:00:40;;;;;;;7.90;7.20;;;;;;;18.70;78.37;156168.38;5052832;28;20435;-79
2022/06/12 01:03:08;;;;;;;8.33;7.20;;;;;;;18.68;77.12;156163.19;5067208;28;20997;-79
2022/06/12 01:08:19;;;;;;;8.60;7.80;;;;;;;18.60;77.52;156142.34;5033229;28;20404;-79
2022/06/12 01:10:50;;;;;;;7.60;6.90;;;;;;;18.53;78.16;156124.13;5049173;28;20482;-79
2022/06/12 01:13:19;;;;;;;8.30;7.47;;;;;;;18.51;78.89;156120.19;5035565;28;20911;-79
2022/06/12 01:15:48;;;;;;;8.30;7.20;;;;;;;18.51;79.30;156120.19;5050222;28;20892;-79
2022/06/12 01:18:20;;;;;;;8.53;7.53;;;;;;;18.47;79.14;156109.78;5048865;28;20470;-79
2022/06/12 01:20:59;;;;;;;8.27;6.60;;;;;;;18.42;79.65;156096.72;5049137;28;20787;-79
2022/06/12 01:23:45;;;;;;;7.53;6.83;;;;;;;18.41;79.25;156092.78;5040293;28;20445;-79
2022/06/12 01:26:46;;;;;;;7.67;6.87;;;;;;;18.36;79.60;156081.06;5077088;28;20830;-79
2022/06/12 01:29:18;;;;;;;8.50;7.70;;;;;;;18.38;80.45;156084.97;5033709;28;20473;-79
2022/06/12 01:31:50;;;;;;;8.13;7.33;;;;;;;18.33;80.57;156071.94;5033971;28;20439;-79
2022/06/12 01:34:28;;;;;;;8.57;7.70;;;;;;;18.29;82.07;156061.53;5050218;28;20439;-79
2022/06/12 01:37:00;;;;;;;7.97;7.17;;;;;;;18.29;81.04;156061.53;5052002;28;20415;-79
2022/06/12 01:39:37;;;;;;;9.53;7.93;;;;;;;18.25;81.18;156053.72;5049945;28;20467;-79
2022/06/12 01:42:11;;;;;;;8.60;7.90;;;;;;;18.23;80.91;156047.22;5051035;28;20435;-79
2022/06/12 01:44:44;;;;;;;9.00;8.17;;;;;;;18.22;80.73;156044.59;5046017;28;20558;-79
2022/06/12 01:47:18;;;;;;;8.70;8.00;;;;;;;18.20;81.66;156040.69;5049025;28;20445;-79
2022/06/12 01:49:49;;;;;;;8.40;7.60;;;;;;;18.17;81.34;156032.88;5051021;28;20641;-79
2022/06/12 01:52:22;;;;;;;8.73;7.83;;;;;;;18.15;82.63;156026.38;5030789;28;20633;-79
2022/06/12 01:54:54;;;;;;;9.73;8.73;;;;;;;18.12;82.36;156019.88;5055800;28;20458;-79
2022/06/12 01:57:26;;;;;;;8.60;7.80;;;;;;;18.07;82.65;156006.84;5048451;28;20554;-79
2022/06/12 01:59:57;;;;;;;8.20;7.60;;;;;;;18.08;83.02;156008.16;5050669;28;20897;-79
2022/06/12 02:02:27;;;;;;;10.10;9.10;;;;;;;18.01;84.05;155989.88;5067597;28;20968;-79
2022/06/12 02:04:59;;;;;;;9.10;8.30;;;;;;;17.96;83.14;155978.19;5069329;28;20503;-80
2022/06/12 02:07:29;;;;;;;8.20;7.40;;;;;;;17.90;84.76;155961.25;5048631;28;20502;-79
2022/06/12 02:10:01;;;;;;;9.50;8.70;;;;;;;17.81;85.91;155939.16;5057930;28;20548;-79
2022/06/12 02:15:22;;;;;;;10.13;9.23;;;;;;;17.77;85.84;155927.38;5031488;28;20644;-79
2022/06/12 02:17:53;;;;;;;9.97;9.13;;;;;;;17.77;85.33;155928.69;5059778;28;20560;-79
2022/06/12 02:20:23;;;;;;;9.90;8.90;;;;;;;17.75;85.66;155923.50;5051122;28;20520;-79
2022/06/12 02:22:51;;;;;;;10.37;9.40;;;;;;;17.74;86.62;155919.63;5049406;28;20438;-79
2022/06/12 02:25:21;;;;;;;9.13;8.23;;;;;;;17.72;87.00;155915.69;5044026;28;20447;-79
2022/06/12 02:27:50;;;;;;;12.13;9.47;;;;;;;17.68;85.14;155903.97;5049633;28;20450;-79
2022/06/12 02:30:22;;;;;;;9.40;8.50;;;;;;;17.68;85.27;155905.28;5069764;28;20499;-79
2022/06/12 02:32:56;;;;;;;10.90;9.87;;;;;;;17.67;85.90;155902.69;5047200;28;20440;-79
2022/06/12 02:35:27;;;;;;;9.57;8.80;;;;;;;17.67;85.39;155902.69;5036375;28;20462;-79
2022/06/12 02:37:57;;;;;;;11.63;8.70;;;;;;;17.63;84.84;155893.53;5060851;28;20454;-79
2022/06/12 02:40:27;;;;;;;10.20;9.20;;;;;;;17.62;86.34;155889.66;5043718;28;20479;-79
2022/06/12 02:42:55;;;;;;;9.63;8.60;;;;;;;17.58;85.89;155880.53;5046576;28;20428;-79
2022/06/12 02:45:28;;;;;;;9.07;8.20;;;;;;;17.59;86.27;155881.84;5057307;28;20523;-79
2022/06/12 02:47:55;;;;;;;11.63;9.33;;;;;;;17.58;86.45;155879.22;5041676;28;20483;-79
2022/06/12 02:50:24;;;;;;;10.83;9.73;;;;;;;17.54;85.93;155868.84;5047194;28;20558;-79
2022/06/12 02:52:57;;;;;;;12.07;9.07;;;;;;;17.51;86.28;155860.97;5047395;28;20871;-79
2022/06/12 02:55:28;;;;;;;11.03;9.93;;;;;;;17.41;86.60;155836.25;5040796;28;20443;-79
2022/06/12 02:58:00;;;;;;;10.50;9.60;;;;;;;17.41;87.13;155834.94;5057605;28;20538;-79
2022/06/12 03:00:33;;;;;;;10.43;9.40;;;;;;;17.40;86.92;155832.31;5049376;28;20474;-78
2022/06/12 03:03:09;;;;;;;10.70;9.80;;;;;;;17.35;88.30;155820.63;5047601;28;20549;-79
2022/06/12 03:05:39;;;;;;;11.57;9.93;;;;;;;17.32;88.01;155811.50;5057319;28;20497;-79
2022/06/12 03:08:14;;;;;;;10.50;9.57;;;;;;;17.32;88.08;155811.50;5053714;28;20435;-79
2022/06/12 03:10:43;;;;;;;11.77;10.67;;;;;;;17.28;88.53;155801.09;5048445;28;20438;-79
2022/06/12 03:13:11;;;;;;;10.90;9.80;;;;;;;17.23;89.66;155789.41;5049774;28;20490;-80
2022/06/12 03:15:51;;;;;;;11.30;10.30;;;;;;;17.16;89.07;155769.84;5049980;28;21026;-79
2022/06/12 03:18:21;;;;;;;11.47;10.37;;;;;;;17.12;89.98;155760.78;5050738;28;20403;-79
2022/06/12 03:21:00;;;;;;;10.80;9.70;;;;;;;17.10;89.38;155755.56;5049633;28;20475;-79
2022/06/12 03:23:41;;;;;;;11.33;10.33;;;;;;;17.05;89.44;155743.81;5048670;28;20933;-79
2022/06/12 03:26:11;;;;;;;10.77;8.90;;;;;;;17.01;90.33;155733.44;5051649;28;20488;-79
2022/06/12 03:28:45;;;;;;;11.93;8.87;;;;;;;16.99;90.08;155726.94;5048944;28;20502;-79
2022/06/12 03:31:18;;;;;;;10.13;9.10;;;;;;;16.98;90.72;155725.63;5045546;28;20451;-79
2022/06/12 03:33:48;;;;;;;9.60;8.70;;;;;;;16.97;89.86;155723.00;5047066;28;20839;-79
2022/06/12 03:36:18;;;;;;;10.73;9.73;;;;;;;16.95;90.24;155717.81;5044334;28;20511;-79
2022/06/12 03:38:52;;;;;;;9.77;8.90;;;;;;;16.91;90.89;155707.44;5030796;28;20462;-78
2022/06/12 03:41:23;;;;;;;10.00;9.00;;;;;;;16.85;91.83;155691.81;5029432;28;20436;-79
2022/06/12 03:43:55;;;;;;;10.77;9.77;;;;;;;16.85;91.28;155690.50;5041706;28;20438;-78
2022/06/12 03:46:27;;;;;;;10.43;9.40;;;;;;;16.88;91.72;155698.31;5050109;28;20869;-78
2022/06/12 03:49:00;;;;;;;10.57;9.57;;;;;;;16.85;91.73;155691.81;5064671;28;20582;-78
2022/06/12 03:51:35;;;;;;;11.17;10.20;;;;;;;16.82;92.24;155684.00;5050128;28;20498;-78
2022/06/12 03:54:05;;;;;;;10.50;9.60;;;;;;;16.79;92.89;155676.19;5050036;28;20431;-78
2022/06/12 03:59:24;;;;;;;10.30;9.40;;;;;;;16.82;93.70;155682.69;5055484;28;20447;-78
2022/06/12 04:01:53;;;;;;;10.30;9.00;;;;;;;16.80;93.32;155678.78;5068829;28;20549;-78
2022/06/12 04:04:21;;;;;;;10.43;9.30;;;;;;;16.87;92.82;155695.69;5069274;28;20827;-79
2022/06/12 04:06:51;;;;;;;10.17;9.00;;;;;;;16.88;93.28;155699.63;5061746;28;20439;-79
2022/06/12 04:09:21;;;;;;;10.57;9.47;;;;;;;16.99;93.17;155726.94;5057469;28;20431;-79
2022/06/12 04:11:52;;;;;;;9.83;9.03;;;;;;;17.19;92.78;155777.66;5050996;28;20484;-79
2022/06/12 04:14:21;;;;;;;11.97;9.63;;;;;;;17.38;91.91;155828.44;5039516;28;20440;-79
2022/06/12 04:16:49;;;;;;;10.30;9.30;;;;;;;17.51;90.38;155860.97;5059139;28;20439;-79
2022/06/12 04:19:19;;;;;;;11.00;10.00;;;;;;;17.68;89.52;155905.28;5049600;28;20787;-79
2022/06/12 04:21:50;;;;;;;11.07;9.03;;;;;;;17.95;88.89;155975.56;5041345;28;20772;-79
2022/06/12 04:24:23;;;;;;;10.03;9.10;;;;;;;18.12;87.95;156019.88;5052606;28;20478;-79
2022/06/12 04:26:53;;;;;;;10.30;9.27;;;;;;;18.40;86.59;156090.22;5043798;28;20505;-79
2022/06/12 04:29:23;;;;;;;10.73;9.73;;;;;;;18.61;84.69;156144.97;5069330;28;20509;-79
2022/06/12 04:31:52;;;;;;;10.30;9.30;;;;;;;18.66;83.67;156158.00;5064269;28;20442;-79
2022/06/12 04:34:23;;;;;;;10.77;9.20;;;;;;;18.97;82.95;156238.75;5048106;28;20445;-79
2022/06/12 04:36:52;;;;;;;9.93;8.63;;;;;;;19.11;81.70;156275.25;5068812;28;20502;-79
2022/06/12 04:39:21;;;;;;;10.47;9.20;;;;;;;19.26;81.00;156313.03;5062786;28;20462;-79
2022/06/12 04:41:50;;;;;;;9.00;8.20;;;;;;;19.51;80.17;156376.97;5060974;28;20447;-79
2022/06/12 04:44:17;;;;;;;9.70;8.70;;;;;;;19.65;79.01;156413.44;5047681;28;20428;-79
2022/06/12 04:46:46;;;;;;;9.70;8.70;;;;;;;19.86;78.84;156468.19;5052084;28;20531;-79
2022/06/12 04:49:16;;;;;;;10.03;8.80;;;;;;;19.93;77.45;156486.47;5072125;28;20501;-79
2022/06/12 04:51:45;;;;;;;9.50;8.60;;;;;;;20.03;76.34;156513.88;5060310;28;20447;-79
2022/06/12 04:54:11;;;;;;;9.03;8.23;;;;;;;20.22;75.31;156560.81;5047418;28;20428;-79
2022/06/12 04:56:38;;;;;;;9.27;8.40;;;;;;;20.40;75.36;156607.78;5056784;28;20445;-79
2022/06/12 04:59:06;;;;;;;9.87;8.97;;;;;;;20.64;73.28;156670.41;5044950;28;20574;-79
2022/06/12 05:01:33;;;;;;;9.73;7.70;;;;;;;20.80;73.23;156710.84;5048475;28;20984;-79
2022/06/12 05:04:01;;;;;;;9.20;8.43;;;;;;;20.77;72.40;156704.34;5050952;28;20455;-79
2022/06/12 05:06:29;;;;;;;8.30;7.70;;;;;;;21.07;72.18;156781.38;5066047;28;20886;-79
2022/06/12 05:08:57;;;;;;;8.20;7.40;;;;;;;21.14;70.96;156799.63;5042106;28;20451;-79
2022/06/12 05:11:24;;;;;;;10.07;9.07;;;;;;;21.22;70.56;156821.84;5031186;28;20547;-79
2022/06/12 05:13:51;;;;;;;8.83;7.47;;;;;;;21.40;69.92;156867.50;5042714;28;20455;-79
2022/06/12 05:16:24;;;;;;;10.27;7.83;;;;;;;21.37;69.72;156859.66;5064647;28;20450;-79
2022/06/12 05:18:51;;;;;;;8.53;7.73;;;;;;;21.53;69.51;156901.44;5035004;28;20452;-79
2022/06/12 05:21:18;;;;;;;8.03;7.23;;;;;;;21.65;68.78;156932.78;5059253;28;20477;-79
2022/06/12 05:23:44;;;;;;;9.03;8.23;;;;;;;21.74;68.37;156956.25;5051794;28;20442;-79
2022/06/12 05:26:15;;;;;;;9.43;8.53;;;;;;;21.89;68.24;156992.88;5059387;28;20449;-79
2022/06/12 05:28:42;;;;;;;8.80;7.90;;;;;;;22.14;66.97;157059.47;5058309;28;20457;-79
2022/06/12 05:31:09;;;;;;;9.27;8.43;;;;;;;22.29;66.27;157097.38;5046373;28;20488;-79
2022/06/12 05:33:41;;;;;;;9.03;8.13;;;;;;;22.45;64.67;157139.16;5046602;28;20522;-80
2022/06/12 05:36:12;;;;;;;8.83;8.13;;;;;;;22.54;64.61;157162.66;5046124;28;20474;-79
2022/06/12 05:38:39;;;;;;;8.87;8.17;;;;;;;22.71;63.86;157207.16;5038269;28;20483;-80
2022/06/12 05:41:06;;;;;;;9.00;8.20;;;;;;;22.96;63.75;157272.44;5047444;28;20471;-80
2022/06/12 05:43:34;;;;;;;8.73;7.83;;;;;;;23.22;62.19;157337.81;5030444;28;20538;-80
2022/06/12 05:46:01;;;;;;;8.73;7.30;;;;;;;23.18;62.20;157327.34;5055625;28;20520;-80
2022/06/12 05:48:28;;;;;;;8.17;7.47;;;;;;;23.03;62.72;157290.72;5049813;28;20511;-80
2022/06/12 05:50:57;;;;;;;8.03;7.33;;;;;;;23.52;62.03;157417.56;5032728;28;20478;-80
2022/06/12 05:53:25;;;;;;;8.87;8.07;;;;;;;24.02;60.96;157547.00;5032062;28;20486;-80
2022/06/12 05:55:53;;;;;;;8.00;7.23;;;;;;;23.95;59.22;157528.69;5051986;28;20463;-80
2022/06/12 05:58:21;;;;;;;8.33;7.53;;;;;;;24.02;60.00;157547.00;5069877;28;20494;-80
2022/06/12 06:00:51;;;;;;;7.43;6.83;;;;;;;24.35;59.76;157630.75;5034259;28;20463;-80
2022/06/12 06:03:20;;;;;;;8.60;7.90;;;;;;;24.71;58.42;157726.22;5052204;28;20441;-80
2022/06/12 06:05:49;;;;;;;8.60;7.80;;;;;;;25.05;57.11;157812.59;5057068;28;20447;-80
2022/06/12 06:08:17;;;;;;;7.90;7.20;;;;;;;24.96;57.37;157790.41;5033956;28;20416;-80
2022/06/12 06:10:45;;;;;;;7.27;6.70;;;;;;;24.93;57.07;157781.22;5050703;28;20434;-81
2022/06/12 06:13:12;;;;;;;7.60;6.93;;;;;;;24.90;57.37;157774.69;5037031;28;20480;-81
2022/06/12 06:15:40;;;;;;;7.90;7.27;;;;;;;25.02;57.47;157806.06;5047736;28;20464;-80
2022/06/12 06:18:12;;;;;;;7.83;7.13;;;;;;;25.21;56.64;157855.81;5050824;28;20458;-81
2022/06/12 06:20:41;;;;;;;7.80;7.00;;;;;;;25.37;56.84;157897.69;5056068;28;20473;-80
2022/06/12 06:23:09;;;;;;;8.30;7.60;;;;;;;25.27;55.86;157870.19;5049957;28;20439;-81
2022/06/12 06:25:36;;;;;;;7.83;7.23;;;;;;;25.42;55.83;157910.75;5050073;28;20986;-81
2022/06/12 06:28:04;;;;;;;7.93;7.13;;;;;;;25.82;54.61;158012.91;5046559;28;20542;-81
2022/06/12 06:30:31;;;;;;;7.70;7.10;;;;;;;25.66;55.22;157971.00;5041776;28;20838;-81
2022/06/12 06:32:58;;;;;;;7.17;6.60;;;;;;;25.78;55.35;158002.47;5034479;28;20438;-81
2022/06/12 06:35:26;;;;;;;7.93;7.13;;;;;;;25.86;55.09;158023.41;5050325;28;20451;-81
2022/06/12 06:37:54;;;;;;;8.30;7.40;;;;;;;26.08;55.08;158080.97;5044554;28;20478;-81
2022/06/12 06:40:23;;;;;;;7.40;6.80;;;;;;;26.28;53.63;158133.44;5032352;28;20475;-81
2022/06/12 06:42:50;;;;;;;7.90;7.17;;;;;;;26.53;53.22;158198.91;5032590;28;20435;-81
2022/06/12 06:48:03;;;;;;;7.03;6.40;;;;;;;26.88;51.79;158288.00;5050662;28;20465;-81
2022/06/12 06:50:33;;;;;;;8.37;6.77;;;;;;;26.67;52.82;158232.94;5069986;28;20519;-81
2022/06/12 06:53:00;;;;;;;7.30;6.70;;;;;;;26.70;52.83;158242.13;5069443;28;20533;-82
2022/06/12 06:55:28;;;;;;;7.87;7.17;;;;;;;26.89;52.99;158290.66;5046059;28;20451;-81
2022/06/12 06:57:57;;;;;;;7.40;6.80;;;;;;;27.08;53.03;158341.75;5054984;28;20466;-81
2022/06/12 07:00:26;;;;;;;7.33;6.63;;;;;;;27.18;52.21;158366.63;5052444;28;20527;-81
2022/06/12 07:02:53;;;;;;;7.57;6.87;;;;;;;27.19;52.85;158369.28;5044751;28;20435;-82
2022/06/12 07:05:21;;;;;;;7.37;6.70;;;;;;;27.41;51.92;158426.94;5029774;28;20447;-82
2022/06/12 07:07:50;;;;;;;7.43;6.73;;;;;;;27.27;52.71;158390.19;5049927;28;20579;-82
2022/06/12 07:10:19;;;;;;;7.40;6.80;;;;;;;27.52;52.43;158455.78;5062676;28;20717;-82
2022/06/12 07:12:48;;;;;;;6.70;6.20;;;;;;;27.69;51.15;158499.06;5033919;28;20539;-82
2022/06/12 07:15:19;;;;;;;8.20;6.43;;;;;;;27.93;51.83;158560.66;5048507;28;20554;-82
2022/06/12 07:17:46;;;;;;;7.20;6.60;;;;;;;28.36;49.72;158673.44;5031722;28;20529;-82
2022/06/12 07:20:15;;;;;;;6.50;6.00;;;;;;;28.39;49.11;158682.63;5043873;28;20476;-82
2022/06/12 07:22:41;;;;;;;6.90;6.40;;;;;;;27.89;50.36;158550.16;5049004;28;20489;-82
2022/06/12 07:25:11;;;;;;;6.57;6.07;;;;;;;28.00;50.08;158579.00;5057004;28;20465;-82
2022/06/12 07:27:39;;;;;;;6.40;6.00;;;;;;;28.04;49.24;158589.56;5047107;28;20446;-82
2022/06/12 07:30:07;;;;;;;6.90;5.93;;;;;;;27.97;50.36;158571.13;5073699;28;20937;-82
2022/06/12 07:32:34;;;;;;;6.63;6.10;;;;;;;28.49;49.32;158707.53;5063857;28;20846;-82
2022/06/12 07:35:01;;;;;;;6.37;5.63;;;;;;;28.79;48.07;158784.94;5064297;28;20449;-82
2022/06/12 07:37:28;;;;;;;6.53;5.93;;;;;;;28.41;47.76;158686.53;5065715;28;20928;-82
2022/06/12 07:39:54;;;;;;;7.10;6.13;;;;;;;28.43;48.42;158691.81;5086648;28;20558;-82
2022/06/12 07:42:23;;;;;;;6.17;5.63;;;;;;;28.60;47.51;158736.38;5058012;28;20553;-82
2022/06/12 07:44:49;;;;;;;6.00;5.50;;;;;;;28.47;47.48;158702.28;5042465;28;20469;-82
2022/06/12 07:47:16;;;;;;;6.47;5.90;;;;;;;28.69;47.15;158758.75;5051470;28;20526;-82
2022/06/12 07:49:43;;;;;;;6.57;5.97;;;;;;;28.60;47.88;158736.38;5044546;28;20477;-82
2022/06/12 07:52:10;;;;;;;6.50;6.00;;;;;;;28.59;47.25;158733.78;5056214;28;20955;-82
2022/06/12 07:54:37;;;;;;;6.23;5.83;;;;;;;28.88;46.88;158809.91;5065366;28;20794;-82
2022/06/12 07:57:05;;;;;;;5.83;5.37;;;;;;;29.16;46.35;158880.69;5068569;28;20434;-82
2022/06/12 07:59:34;;;;;;;6.33;5.80;;;;;;;29.36;45.41;158933.25;5041206;28;20447;-82
2022/06/12 08:02:01;;;;;;;6.30;5.80;;;;;;;29.17;46.10;158883.34;5040438;28;20583;-82
2022/06/12 08:04:31;;;;;;;6.70;6.10;;;;;;;29.44;45.61;158954.25;5042754;28;20646;-82
2022/06/12 08:06:58;;;;;;;6.80;6.20;;;;;;;29.53;46.12;158979.16;5056812;28;20470;-82
2022/06/12 08:09:24;;;;;;;6.27;5.67;;;;;;;29.71;45.56;159025.09;5068088;28;20545;-81
2022/06/12 08:11:52;;;;;;;6.83;6.23;;;;;;;29.76;45.36;159036.94;5033294;28;20448;-81
2022/06/12 08:14:21;;;;;;;6.83;6.23;;;;;;;30.05;44.74;159114.38;5034635;28;20455;-75
2022/06/12 08:16:49;;;;;;;6.17;5.77;;;;;;;30.55;43.86;159244.38;5034030;28;20451;-75
2022/06/12 08:22:03;;;;;;;6.53;6.10;;;;;;;29.99;45.30;159098.66;5053598;28;20457;-82
2022/06/12 08:24:30;;;;;;;6.00;5.60;;;;;;;30.48;44.17;159224.69;5050610;28;20541;-82
2022/06/12 08:26:57;;;;;;;7.20;6.60;;;;;;;30.52;43.44;159236.53;5050514;28;20431;-82
2022/06/12 08:29:25;;;;;;;7.10;6.50;;;;;;;30.52;43.60;159235.22;5049449;28;20468;-76
2022/06/12 08:31:55;;;;;;;7.60;7.00;;;;;;;30.36;43.84;159193.19;5049206;28;20431;-76
2022/06/12 08:34:25;;;;;;;6.57;6.07;;;;;;;30.47;43.95;159222.09;5065162;28;20430;-75
2022/06/12 08:36:56;;;;;;;6.60;6.10;;;;;;;30.70;43.46;159283.81;5047276;28;20872;-75
2022/06/12 08:39:24;;;;;;;7.50;6.83;;;;;;;30.43;42.45;159212.88;5031660;28;20490;-75
2022/06/12 08:41:56;;;;;;;6.97;6.43;;;;;;;30.39;43.31;159202.41;5030872;28;20503;-75
2022/06/12 08:44:28;;;;;;;7.80;7.20;;;;;;;29.58;44.44;158992.28;5041787;28;20828;-75
2022/06/12 08:47:02;;;;;;;7.20;6.37;;;;;;;29.64;44.22;159006.72;5047485;28;20479;-76
2022/06/12 08:49:40;;;;;;;9.33;7.20;;;;;;;30.29;43.02;159174.78;5049420;28;20487;-76
2022/06/12 08:52:12;;;;;;;6.97;6.37;;;;;;;30.02;42.84;159106.50;5047747;28;20957;-76
2022/06/12 08:54:43;;;;;;;6.97;6.37;;;;;;;29.83;43.37;159056.66;5048564;28;20845;-75
2022/06/12 08:57:14;;;;;;;8.10;6.07;;;;;;;29.23;43.16;158899.16;5051417;28;20442;-76
2022/06/12 08:59:44;;;;;;;6.43;5.83;;;;;;;29.37;43.38;158937.19;5052238;28;20829;-75
2022/06/12 09:02:18;;;;;;;6.70;6.13;;;;;;;29.70;42.96;159021.16;5050863;28;20459;-75
2022/06/12 09:04:57;;;;;;;5.93;5.47;;;;;;;30.17;41.89;159144.59;5050708;28;20454;-75
2022/06/12 09:07:28;;;;;;;6.03;5.53;;;;;;;30.36;42.21;159194.53;5042512;28;20471;-76
2022/06/12 09:09:58;;;;;;;6.27;5.80;;;;;;;30.35;42.09;159191.84;5049879;28;20462;-75
2022/06/12 09:12:30;;;;;;;5.90;5.50;;;;;;;30.81;39.71;159310.06;5048839;28;20857;-75
2022/06/12 09:15:05;;;;;;;5.70;5.30;;;;;;;30.90;39.09;159334.97;5040339;28;20447;-76
2022/06/12 09:17:41;;;;;;;6.97;6.20;;;;;;;31.14;39.81;159398.09;5047025;28;20439;-76
2022/06/12 09:20:12;;;;;;;5.80;5.40;;;;;;;31.34;38.91;159450.66;5046808;28;20478;-75
2022/06/12 09:22:46;;;;;;;6.50;6.00;;;;;;;30.59;39.67;159253.59;5051852;28;20828;-75
2022/06/12 09:25:17;;;;;;;5.53;5.13;;;;;;;29.70;40.99;159022.47;5067643;28;20513;-75
2022/06/12 09:27:50;;;;;;;6.60;5.90;;;;;;;29.83;42.02;159056.66;5059650;28;20440;-75
2022/06/12 09:30:20;;;;;;;6.00;5.57;;;;;;;30.17;39.69;159145.91;5031972;28;20546;-75
2022/06/12 09:32:55;;;;;;;5.50;5.10;;;;;;;30.00;39.86;159099.94;5033072;28;20432;-75
2022/06/12 09:35:33;;;;;;;5.17;4.77;;;;;;;29.47;41.22;158963.41;5052627;28;20653;-78
2022/06/12 09:38:21;;;;;;;5.60;5.20;;;;;;;29.31;40.72;158920.16;5049063;28;20440;-75
2022/06/12 09:41:09;;;;;;;6.23;5.40;;;;;;;29.49;41.21;158968.66;5033517;28;20475;-75
2022/06/12 09:43:40;;;;;;;6.20;5.70;;;;;;;29.72;40.95;159027.72;5057528;28;20440;-75
2022/06/12 09:46:18;;;;;;;6.57;5.83;;;;;;;29.75;40.16;159035.59;5033131;28;20455;-76
2022/06/12 09:48:55;;;;;;;5.93;5.50;;;;;;;29.29;40.64;158916.19;5030811;28;20455;-78
2022/06/12 09:51:30;;;;;;;5.77;5.27;;;;;;;29.37;43.82;158935.84;5047978;28;20435;-75
2022/06/12 09:54:22;;;;;;;5.57;5.17;;;;;;;30.24;38.85;159161.63;5049936;28;20474;-75
2022/06/12 09:56:53;;;;;;;5.40;4.90;;;;;;;30.94;38.25;159345.56;5047594;28;20467;-75
2022/06/12 09:59:23;;;;;;;7.43;5.27;;;;;;;30.81;38.11;159311.38;5031575;28;20530;-75
2022/06/12 10:01:55;;;;;;;5.77;5.37;;;;;;;30.71;38.68;159286.41;5048990;28;20537;-75
2022/06/12 10:04:27;;;;;;;5.30;4.90;;;;;;;30.91;37.63;159336.31;5032537;28;20420;-75
2022/06/12 10:06:57;;;;;;;4.97;4.57;;;;;;;30.90;38.68;159334.97;5039747;28;20478;-75
2022/06/12 10:09:26;;;;;;;5.53;4.57;;;;;;;30.52;37.97;159235.22;5051976;28;20469;-75
2022/06/12 10:11:58;;;;;;;5.53;5.07;;;;;;;31.07;37.46;159379.72;5032268;28;20510;-75
2022/06/12 10:14:29;;;;;;;5.80;5.30;;;;;;;31.15;36.53;159400.72;5048520;28;20448;-75
2022/06/12 10:16:59;;;;;;;5.67;5.17;;;;;;;30.50;36.98;159229.97;5032757;28;20463;-75
2022/06/12 10:19:30;;;;;;;5.43;4.93;;;;;;;30.51;37.39;159232.56;5032697;28;20464;-74
2022/06/12 10:22:02;;;;;;;5.60;5.20;;;;;;;30.03;37.82;159109.13;5050362;28;20464;-75
2022/06/12 10:24:29;;;;;;;5.40;4.50;;;;;;;29.99;38.05;159098.66;5044098;28;20489;-77
2022/06/12 10:27:00;;;;;;;5.40;4.90;;;;;;;29.70;37.53;159022.47;5048318;28;20431;-75
2022/06/12 10:29:28;;;;;;;5.67;5.17;;;;;;;29.40;38.27;158945.06;5038752;28;20697;-76
2022/06/12 10:31:59;;;;;;;5.57;5.07;;;;;;;30.05;38.18;159114.38;5044692;28;20518;-75
2022/06/12 10:34:29;;;;;;;5.17;4.80;;;;;;;30.03;37.33;159109.13;5058999;28;20537;-75
2022/06/12 10:36:56;;;;;;;5.40;4.90;;;;;;;29.48;38.59;158966.06;5032622;28;20802;-75
2022/06/12 10:39:25;;;;;;;5.73;5.27;;;;;;;29.07;39.22;158857.13;5047151;28;20420;-75
2022/06/12 10:41:54;;;;;;;5.37;4.97;;;;;;;29.42;39.85;158948.97;5030350;28;20822;-75
2022/06/12 10:44:34;;;;;;;5.60;5.20;;;;;;;29.72;39.79;159027.72;5030954;28;21017;-75
2022/06/12 10:47:21;;;;;;;5.80;5.30;;;;;;;29.38;39.05;158938.50;5047085;28;20442;-75
2022/06/12 10:49:50;;;;;;;5.37;5.00;;;;;;;28.62;39.71;158740.41;5047658;28;20452;-75
2022/06/12 10:52:20;;;;;;;5.13;4.73;;;;;;;29.06;40.89;158854.47;5034850;28;20427;-75
2022/06/12 10:54:48;;;;;;;5.70;5.30;;;;;;;29.37;39.49;158935.84;5030505;28;20850;-75
2022/06/12 10:57:29;;;;;;;5.20;4.90;;;;;;;29.01;40.39;158841.38;5031533;28;20432;-75
2022/06/12 10:59:59;;;;;;;6.40;5.20;;;;;;;29.19;40.00;158888.59;5041126;28;20493;-75
2022/06/12 11:02:46;;;;;;;5.50;5.00;;;;;;;29.04;40.38;158849.25;5041204;28;20454;-75
2022/06/12 11:05:37;;;;;;;5.27;4.87;;;;;;;29.10;40.17;158865.00;5049922;28;20849;-75
2022/06/12 11:08:11;;;;;;;5.73;5.30;;;;;;;28.16;40.70;158621.00;5039967;28;20491;-76
2022/06/12 11:10:43;;;;;;;5.90;5.40;;;;;;;27.86;41.58;158542.28;5050076;28;20451;-76
2022/06/12 11:13:23;;;;;;;5.30;5.00;;;;;;;27.83;42.50;158534.44;5066587;28;20422;-75
2022/06/12 11:16:02;;;;;;;5.87;5.37;;;;;;;27.70;42.94;158502.97;5050464;28;20509;-75
2022/06/12 11:18:38;;;;;;;6.00;5.37;;;;;;;27.80;41.77;158527.84;5048611;28;20431;-75
2022/06/12 11:21:12;;;;;;;5.47;5.07;;;;;;;27.84;41.48;158538.38;5050318;28;20498;-75
2022/06/12 11:23:55;;;;;;;5.50;5.00;;;;;;;27.78;42.05;158523.94;5039616;28;20546;-77
2022/06/12 11:26:30;;;;;;;6.00;5.50;;;;;;;27.92;42.28;158558.03;5033252;28;20462;-75
2022/06/12 11:29:06;;;;;;;6.10;5.50;;;;;;;27.77;41.99;158521.31;5035347;28;20435;-75
2022/06/12 11:31:44;;;;;;;6.10;5.60;;;;;;;27.90;41.66;158552.78;5051248;28;20415;-75
2022/06/12 11:34:22;;;;;;;6.37;5.30;;;;;;;27.96;42.23;158569.81;5049931;28;20794;-75
2022/06/12 11:36:58;;;;;;;5.90;5.50;;;;;;;28.04;42.88;158589.56;5045871;28;20550;-75
2022/06/12 11:39:32;;;;;;;5.77;5.37;;;;;;;28.32;42.53;158664.28;5050332;28;20569;-75
2022/06/12 11:42:09;;;;;;;5.23;4.73;;;;;;;28.78;41.76;158783.63;5050814;28;20454;-75
2022/06/12 11:44:46;;;;;;;5.83;5.33;;;;;;;28.45;41.05;158695.72;5043741;28;20949;-76
2022/06/12 11:47:23;;;;;;;6.20;5.20;;;;;;;28.68;43.36;158757.41;5030823;28;20486;-76
2022/06/12 11:49:59;;;;;;;5.53;5.13;;;;;;;28.85;43.31;158802.03;5031094;28;20435;-78
2022/06/12 11:52:38;;;;;;;5.83;5.33;;;;;;;29.09;42.53;158863.69;5046851;28;20501;-76
2022/06/12 11:55:17;;;;;;;6.33;5.73;;;;;;;29.04;41.57;158849.25;5031193;28;21007;-76